createdAt,value
2022-08-05T00:02:07.868Z,27.17
2022-08-05T00:04:37.486Z,27.05
2022-08-05T00:07:21.801Z,27.01
2022-08-05T00:09:52.209Z,26.96
2022-08-05T00:12:20.570Z,27.00
2022-08-05T00:14:46.522Z,27.05
2022-08-05T00:17:20.227Z,27.08
2022-08-05T00:20:01.806Z,27.12
2022-08-05T00:22:29.803Z,27.07
2022-08-05T00:24:57.711Z,26.99
2022-08-05T00:27:28.568Z,26.90
2022-08-05T00:30:03.525Z,26.94
2022-08-05T00:32:29.534Z,26.99
2022-08-05T00:35:06.591Z,26.98
2022-08-05T00:37:51.284Z,26.93
2022-08-05T00:40:26.652Z,26.84
2022-08-05T00:42:55.710Z,26.79
2022-08-05T00:45:24.985Z,26.87
2022-08-05T00:48:06.391Z,26.83
2022-08-05T00:50:33.779Z,26.78
2022-08-05T00:53:00.983Z,26.75
2022-08-05T00:55:33.995Z,26.64
2022-08-05T00:58:11.180Z,26.69
2022-08-05T01:00:38.397Z,26.70
2022-08-05T01:03:07.878Z,26.47
2022-08-05T01:05:34.424Z,26.57
2022-08-05T01:08:39.225Z,26.71
2022-08-05T01:10:51.491Z,26.63
2022-08-05T01:13:22.236Z,26.56
2022-08-05T01:15:48.423Z,26.51
2022-08-05T01:18:14.393Z,26.49
2022-08-05T01:20:41.779Z,26.46
2022-08-05T01:23:15.374Z,26.29
2022-08-05T01:25:52.338Z,26.10
2022-08-05T01:28:19.812Z,26.24
2022-08-05T01:30:52.419Z,26.30
2022-08-05T01:33:19.977Z,26.26
2022-08-05T01:35:52.010Z,26.32
2022-08-05T01:38:24.828Z,26.28
2022-08-05T01:40:53.639Z,26.40
2022-08-05T01:43:22.053Z,26.35
2022-08-05T01:45:54.074Z,26.41
2022-08-05T01:48:22.598Z,26.41
2022-08-05T01:50:50.921Z,26.41
2022-08-05T01:53:17.094Z,26.16
2022-08-05T01:56:04.460Z,25.96
2022-08-05T01:58:40.901Z,25.92
2022-08-05T02:01:10.866Z,25.86
2022-08-05T02:03:37.249Z,25.93
2022-08-05T02:06:03.567Z,26.03
2022-08-05T02:08:57.829Z,25.93
2022-08-05T02:11:33.395Z,25.95
2022-08-05T02:13:59.969Z,25.96
2022-08-05T02:16:27.711Z,25.97
2022-08-05T02:18:53.707Z,26.00
2022-08-05T02:21:19.698Z,25.95
2022-08-05T02:23:46.632Z,25.94
2022-08-05T02:26:14.379Z,25.81
2022-08-05T02:28:45.768Z,25.92
2022-08-05T02:31:14.825Z,25.96
2022-08-05T02:33:40.985Z,25.95
2022-08-05T02:36:07.100Z,25.94
2022-08-05T02:38:35.692Z,25.94
2022-08-05T02:41:14.754Z,25.83
2022-08-05T02:44:06.299Z,25.85
2022-08-05T02:46:29.560Z,25.86
2022-08-05T02:48:56.452Z,25.76
2022-08-05T02:51:28.486Z,25.72
2022-08-05T02:54:08.605Z,25.53
2022-08-05T02:56:54.865Z,25.48
2022-08-05T02:59:20.918Z,25.55
2022-08-05T03:01:53.263Z,25.51
2022-08-05T03:04:19.438Z,25.58
2022-08-05T03:06:55.444Z,25.57
2022-08-05T03:09:36.251Z,25.45
2022-08-05T03:12:03.637Z,25.51
2022-08-05T03:14:29.669Z,25.48
2022-08-05T03:16:56.693Z,25.45
2022-08-05T03:19:33.133Z,25.51
2022-08-05T03:22:01.964Z,25.52
2022-08-05T03:24:31.005Z,25.46
2022-08-05T03:26:57.024Z,25.42
2022-08-05T03:29:23.374Z,25.37
2022-08-05T03:34:40.493Z,25.43
2022-08-05T03:37:06.594Z,25.35
2022-08-05T03:39:38.199Z,25.33
2022-08-05T03:42:19.957Z,25.34
2022-08-05T03:44:46.002Z,25.35
2022-08-05T03:47:13.732Z,25.45
2022-08-05T03:52:48.708Z,25.37
2022-08-05T03:56:04.278Z,25.18
2022-08-05T03:58:03.987Z,25.23
2022-08-05T04:00:31.462Z,25.14
2022-08-05T04:02:59.272Z,25.23
2022-08-05T04:05:25.645Z,25.38
2022-08-05T04:07:58.790Z,25.45
2022-08-05T04:10:25.166Z,25.48
2022-08-05T04:12:54.157Z,25.44
2022-08-05T04:15:21.027Z,25.39
2022-08-05T04:17:57.361Z,25.46
2022-08-05T04:20:26.397Z,25.44
2022-08-05T04:22:52.686Z,25.32
2022-08-05T04:25:19.205Z,25.26
2022-08-05T04:28:05.944Z,25.32
2022-08-05T04:30:37.882Z,25.42
2022-08-05T04:33:05.963Z,25.53
2022-08-05T04:36:16.537Z,25.57
2022-08-05T04:38:20.260Z,25.53
2022-08-05T04:40:50.677Z,25.58
2022-08-05T04:43:17.196Z,25.74
2022-08-05T04:45:48.814Z,25.82
2022-08-05T05:30:58.918Z,28.52
2022-08-05T05:33:24.876Z,28.74
2022-08-05T05:35:53.680Z,28.96
2022-08-05T05:38:26.709Z,28.95
2022-08-05T05:40:53.317Z,29.09
2022-08-05T05:43:22.334Z,29.23
2022-08-05T05:46:10.711Z,29.37
2022-08-05T05:48:39.929Z,29.47
2022-08-05T05:51:15.742Z,29.69
2022-08-05T05:53:45.984Z,30.00
2022-08-05T06:01:57.785Z,30.14
2022-08-05T06:04:24.187Z,30.35
2022-08-05T06:06:50.171Z,30.55
2022-08-05T06:09:17.312Z,30.73
2022-08-05T06:11:59.245Z,30.94
2022-08-05T06:14:28.849Z,30.95
2022-08-05T06:16:55.066Z,31.10
2022-08-05T06:19:34.158Z,31.17
2022-08-05T06:22:01.444Z,31.33
2022-08-05T06:24:27.465Z,31.45
2022-08-05T06:26:53.443Z,31.38
2022-08-05T06:29:25.349Z,31.42
2022-08-05T06:32:26.357Z,31.58
2022-08-05T06:34:56.306Z,31.43
2022-08-05T06:37:55.603Z,31.69
2022-08-05T06:40:08.918Z,32.06
2022-08-05T06:42:34.867Z,32.26
2022-08-05T06:45:00.822Z,31.90
2022-08-05T06:48:36.459Z,31.92
2022-08-05T06:50:17.542Z,31.86
2022-08-05T06:52:43.983Z,32.10
2022-08-05T06:55:24.948Z,32.30
2022-08-05T06:57:57.455Z,32.40
2022-08-05T07:00:29.770Z,32.35
2022-08-05T07:02:55.761Z,32.35
2022-08-05T07:05:37.284Z,32.42
2022-08-05T07:08:03.911Z,32.57
2022-08-05T07:10:30.483Z,32.73
2022-08-05T07:12:58.782Z,32.97
2022-08-05T07:15:34.561Z,33.06
2022-08-05T07:18:14.700Z,33.10
2022-08-05T07:20:46.454Z,33.26
2022-08-05T07:23:13.003Z,33.46
2022-08-05T07:25:55.297Z,33.48
2022-08-05T07:28:22.527Z,33.61
2022-08-05T07:30:52.772Z,33.55
2022-08-05T07:33:20.685Z,33.68
2022-08-05T07:36:19.924Z,33.47
2022-08-05T07:38:46.896Z,33.58
2022-08-05T07:41:35.297Z,33.64
2022-08-05T07:44:00.881Z,33.73
2022-08-05T07:46:26.887Z,34.04
2022-08-05T07:49:01.834Z,33.83
2022-08-05T07:51:40.172Z,33.85
2022-08-05T07:54:08.311Z,34.12
2022-08-05T07:57:02.613Z,34.27
2022-08-05T07:59:31.082Z,33.92
2022-08-05T08:02:05.583Z,34.30
2022-08-05T08:04:38.383Z,34.12
2022-08-05T08:07:05.584Z,34.34
2022-08-05T08:09:33.250Z,34.23
2022-08-05T08:12:06.196Z,34.67
2022-08-05T08:14:37.333Z,34.41
2022-08-05T08:17:06.762Z,34.64
2022-08-05T08:20:20.994Z,35.06
2022-08-05T08:22:20.366Z,34.95
2022-08-05T08:24:51.291Z,34.92
2022-08-05T08:27:18.023Z,35.03
2022-08-05T08:30:05.306Z,34.85
2022-08-05T08:32:29.927Z,34.89
2022-08-05T08:34:55.898Z,34.57
2022-08-05T08:37:27.817Z,34.48
2022-08-05T08:39:54.227Z,35.03
2022-08-05T08:42:34.399Z,35.56
2022-08-05T08:45:23.663Z,35.69
2022-08-05T08:48:12.865Z,36.06
2022-08-05T08:51:22.493Z,36.22
2022-08-05T08:53:23.700Z,36.11
2022-08-05T08:56:04.713Z,36.08
2022-08-05T08:58:44.014Z,35.78
2022-08-05T09:01:15.792Z,35.57
2022-08-05T09:03:45.539Z,35.58
2022-08-05T09:06:13.880Z,35.67
2022-08-05T09:08:44.527Z,36.43
2022-08-05T09:11:13.566Z,36.93
2022-08-05T09:14:00.700Z,37.05
2022-08-05T09:16:26.880Z,36.58
2022-08-05T09:18:52.987Z,36.53
2022-08-05T09:22:22.078Z,36.47
2022-08-05T09:24:07.415Z,37.03
2022-08-05T09:26:36.195Z,37.44
2022-08-05T09:29:02.734Z,37.08
2022-08-05T09:32:41.003Z,37.01
2022-08-05T09:34:14.622Z,37.26
2022-08-05T09:36:54.223Z,36.55
2022-08-05T09:39:22.399Z,37.32
2022-08-05T09:41:53.962Z,37.73
2022-08-05T09:44:22.365Z,38.28
2022-08-05T09:46:53.677Z,38.71
2022-08-05T09:49:40.281Z,38.91
2022-08-05T09:52:11.178Z,37.73
2022-08-05T09:54:37.158Z,37.77
2022-08-05T09:57:06.142Z,37.86
2022-08-05T09:59:49.233Z,38.37
2022-08-05T10:02:15.212Z,38.64
2022-08-05T10:04:47.774Z,39.20
2022-08-05T10:07:20.481Z,39.26
2022-08-05T10:10:14.627Z,38.17
2022-08-05T10:12:49.804Z,38.57
2022-08-05T10:15:17.254Z,39.11
2022-08-05T10:17:56.606Z,39.27
2022-08-05T10:20:23.621Z,39.12
2022-08-05T10:22:51.280Z,38.50
2022-08-05T10:25:17.334Z,38.17
2022-08-05T10:28:12.738Z,38.37
2022-08-05T10:31:20.958Z,38.90
2022-08-05T10:33:15.461Z,39.57
2022-08-05T10:35:44.220Z,39.69
2022-08-05T10:38:11.958Z,39.94
2022-08-05T10:40:39.004Z,39.44
2022-08-05T10:43:12.387Z,39.25
2022-08-05T10:45:40.016Z,38.98
2022-08-05T10:48:30.704Z,39.42
2022-08-05T10:50:53.822Z,39.83
2022-08-05T10:53:19.762Z,39.52
2022-08-05T10:56:05.263Z,39.89
2022-08-05T10:58:48.015Z,40.38
2022-08-05T11:01:15.449Z,40.32
2022-08-05T11:03:43.551Z,39.97
2022-08-05T11:06:16.251Z,39.78
2022-08-05T11:08:43.682Z,39.80
2022-08-05T11:11:16.548Z,40.26
2022-08-05T11:13:57.618Z,40.36
2022-08-05T11:16:34.057Z,40.08
2022-08-05T11:20:10.871Z,38.73
2022-08-05T11:21:58.587Z,39.33
2022-08-05T11:24:29.831Z,39.94
2022-08-05T11:26:56.465Z,39.70
2022-08-05T11:29:22.873Z,40.38
2022-08-05T11:31:53.827Z,40.61
2022-08-05T11:34:22.814Z,38.85
2022-08-05T11:36:53.051Z,38.47
2022-08-05T11:39:19.233Z,38.82
2022-08-05T11:41:57.978Z,39.56
2022-08-05T11:44:52.966Z,39.54
2022-08-05T11:47:18.646Z,39.38
2022-08-05T11:49:50.974Z,39.25
2022-08-05T11:52:17.307Z,39.18
2022-08-05T11:54:55.019Z,39.79
2022-08-05T11:57:24.284Z,40.26
2022-08-05T11:59:51.712Z,39.94
2022-08-05T12:02:23.946Z,38.90
2022-08-05T12:04:59.111Z,38.78
2022-08-05T12:08:04.437Z,38.90
2022-08-05T12:10:12.261Z,39.54
2022-08-05T12:12:38.316Z,40.52
2022-08-05T12:15:38.308Z,40.07
2022-08-05T12:18:10.007Z,39.63
2022-08-05T12:20:37.142Z,39.96
2022-08-05T12:23:03.290Z,40.17
2022-08-05T12:25:30.894Z,40.82
2022-08-05T12:27:56.830Z,40.83
2022-08-05T12:30:29.102Z,41.40
2022-08-05T12:32:58.358Z,41.17
2022-08-05T12:35:37.234Z,41.13
2022-08-05T12:38:05.937Z,41.15
2022-08-05T12:40:31.884Z,41.57
2022-08-05T12:42:57.851Z,41.50
2022-08-05T12:45:42.444Z,41.21
2022-08-05T12:48:17.255Z,41.59
2022-08-05T12:50:53.685Z,42.04
2022-08-05T12:53:19.927Z,41.90
2022-08-05T12:55:45.890Z,41.44
2022-08-05T12:58:50.805Z,41.32
2022-08-05T13:02:00.258Z,41.92
2022-08-05T13:03:45.488Z,41.59
2022-08-05T13:06:14.688Z,42.19
2022-08-05T13:08:42.191Z,42.38
2022-08-05T13:11:17.843Z,42.47
2022-08-05T13:14:06.784Z,41.85
2022-08-05T13:16:33.566Z,41.83
2022-08-05T13:18:59.802Z,42.24
2022-08-05T13:21:28.117Z,42.78
2022-08-05T13:23:54.613Z,42.51
2022-08-05T13:26:24.125Z,42.61
2022-08-05T13:28:56.328Z,42.17
2022-08-05T13:32:03.721Z,42.45
2022-08-05T13:34:23.129Z,42.22
2022-08-05T13:36:50.449Z,42.26
2022-08-05T13:40:12.952Z,41.72
2022-08-05T13:42:02.382Z,41.68
2022-08-05T13:44:28.599Z,42.09
2022-08-05T13:47:08.648Z,41.66
2022-08-05T13:49:35.515Z,41.53
2022-08-05T13:52:04.636Z,41.65
2022-08-05T13:54:35.243Z,41.94
2022-08-05T13:57:02.239Z,41.57
2022-08-05T13:59:30.671Z,41.14
2022-08-05T14:01:58.792Z,41.49
2022-08-05T14:04:26.618Z,41.35
2022-08-05T14:07:12.015Z,41.56
2022-08-05T14:09:45.986Z,41.37
2022-08-05T14:12:18.223Z,41.37
2022-08-05T14:14:58.428Z,41.31
2022-08-05T14:17:24.371Z,40.91
2022-08-05T14:19:55.021Z,40.39
2022-08-05T14:22:22.843Z,39.59
2022-08-05T14:24:49.722Z,39.22
2022-08-05T14:27:17.487Z,39.01
2022-08-05T14:29:44.440Z,39.17
2022-08-05T14:32:26.801Z,39.21
2022-08-05T14:34:53.543Z,39.13
2022-08-05T14:37:20.726Z,39.02
2022-08-05T14:39:50.057Z,39.11
2022-08-05T14:42:23.448Z,39.13
2022-08-05T14:44:51.062Z,39.02
2022-08-05T14:47:17.019Z,38.82
2022-08-05T14:50:11.307Z,38.70
2022-08-05T14:52:53.178Z,38.57
2022-08-05T14:55:23.034Z,38.50
2022-08-05T14:57:56.110Z,38.49
2022-08-05T15:00:27.939Z,38.63
2022-08-05T15:02:55.583Z,38.52
2022-08-05T15:05:22.078Z,38.39
2022-08-05T15:08:05.356Z,38.41
2022-08-05T15:10:35.078Z,38.26
2022-08-05T15:13:03.661Z,38.28
2022-08-05T15:15:53.862Z,38.49
2022-08-05T15:18:17.279Z,38.50
2022-08-05T15:20:43.434Z,38.50
2022-08-05T15:23:11.919Z,38.47
2022-08-05T15:25:51.593Z,38.39
2022-08-05T15:28:19.068Z,38.32
2022-08-05T15:30:45.863Z,38.24
2022-08-05T15:33:12.511Z,38.26
2022-08-05T15:35:59.262Z,38.07
2022-08-05T15:38:35.815Z,37.89
2022-08-05T15:41:21.927Z,37.88
2022-08-05T15:43:48.358Z,37.77
2022-08-05T15:46:15.055Z,37.84
2022-08-05T15:48:53.123Z,37.83
2022-08-05T15:52:03.924Z,37.76
2022-08-05T15:54:15.209Z,37.60
2022-08-05T15:56:41.785Z,37.57
2022-08-05T15:59:08.163Z,37.59
2022-08-05T16:01:39.721Z,37.48
2022-08-05T16:04:07.057Z,37.42
2022-08-05T16:06:38.091Z,37.33
2022-08-05T16:09:04.062Z,37.32
2022-08-05T16:11:40.190Z,37.27
2022-08-05T16:14:09.322Z,37.22
2022-08-05T16:16:35.296Z,37.19
2022-08-05T16:19:01.229Z,37.16
2022-08-05T16:22:00.089Z,37.15
2022-08-05T16:24:40.771Z,37.02
2022-08-05T16:26:59.555Z,37.02
2022-08-05T16:29:26.518Z,36.96
2022-08-05T16:31:56.839Z,36.92
2022-08-05T16:34:23.907Z,36.84
2022-08-05T16:36:50.027Z,36.92
2022-08-05T16:39:18.335Z,36.95
2022-08-05T16:42:13.718Z,36.93
2022-08-05T16:44:32.729Z,36.84
2022-08-05T16:47:00.611Z,36.78
2022-08-05T16:49:26.590Z,36.77
2022-08-05T16:51:55.091Z,36.74
2022-08-05T16:54:28.962Z,36.71
2022-08-05T16:56:58.020Z,36.70
2022-08-05T16:59:24.031Z,36.70
2022-08-05T17:01:54.203Z,36.65
2022-08-05T17:04:21.644Z,36.57
2022-08-05T17:06:53.467Z,36.54
2022-08-05T17:09:19.710Z,36.52
2022-08-05T17:11:48.690Z,36.40
2022-08-05T17:14:34.520Z,36.33
2022-08-05T17:17:01.670Z,36.30
2022-08-05T17:19:28.723Z,36.23
2022-08-05T17:21:56.572Z,36.14
2022-08-05T17:24:33.963Z,36.05
2022-08-05T17:27:06.351Z,35.98
2022-08-05T17:29:39.881Z,35.98
2022-08-05T17:32:08.321Z,35.92
2022-08-05T17:34:37.122Z,35.86
2022-08-05T17:37:04.638Z,35.80
2022-08-05T17:39:55.228Z,35.74
2022-08-05T17:42:26.990Z,35.66
2022-08-05T17:44:56.226Z,35.60
2022-08-05T17:47:22.716Z,35.55
2022-08-05T17:49:59.598Z,35.43
2022-08-05T17:52:29.656Z,35.40
2022-08-05T17:54:56.280Z,35.35
2022-08-05T17:57:22.822Z,35.30
2022-08-05T18:00:03.785Z,35.20
2022-08-05T18:02:32.788Z,35.19
2022-08-05T18:04:58.862Z,35.10
2022-08-05T18:07:24.959Z,34.97
2022-08-05T18:10:06.542Z,34.87
2022-08-05T18:12:36.342Z,34.75
2022-08-05T18:15:02.298Z,34.77
2022-08-05T18:18:01.655Z,34.78
2022-08-05T18:20:15.119Z,34.62
2022-08-05T18:22:54.145Z,34.47
2022-08-05T18:25:20.781Z,34.59
2022-08-05T18:27:52.500Z,34.40
2022-08-05T18:30:18.732Z,34.28
2022-08-05T18:32:53.298Z,34.29
2022-08-05T18:35:49.702Z,34.29
2022-08-05T18:38:11.971Z,34.31
2022-08-05T18:41:56.902Z,34.35
2022-08-05T18:43:24.439Z,34.28
2022-08-05T18:45:57.662Z,34.13
2022-08-05T18:48:31.118Z,34.02
2022-08-05T18:51:01.725Z,34.02
2022-08-05T18:53:45.889Z,34.04
2022-08-05T18:56:16.525Z,34.03
2022-08-05T18:58:47.803Z,34.00
2022-08-05T19:01:18.262Z,33.92
2022-08-05T19:03:52.948Z,33.92
2022-08-05T19:06:22.428Z,33.99
2022-08-05T19:09:00.391Z,34.05
2022-08-05T19:11:28.113Z,34.10
2022-08-05T19:14:00.667Z,34.10
2022-08-05T19:16:29.321Z,33.86
2022-08-05T19:18:59.137Z,33.77
2022-08-05T19:21:25.095Z,33.81
2022-08-05T19:24:05.456Z,33.82
2022-08-05T19:26:34.750Z,33.60
2022-08-05T19:29:10.051Z,33.23
2022-08-05T19:31:44.822Z,33.32
2022-08-05T19:34:18.666Z,33.37
2022-08-05T19:36:44.828Z,33.49
2022-08-05T19:39:13.305Z,33.44
2022-08-05T19:42:07.263Z,33.39
2022-08-05T19:44:29.289Z,33.10
2022-08-05T19:46:56.045Z,33.07
2022-08-05T19:49:23.645Z,33.16
2022-08-05T19:52:08.349Z,33.07
2022-08-05T19:54:36.869Z,33.07
2022-08-05T19:57:08.600Z,32.94
2022-08-05T19:59:56.132Z,33.06
2022-08-05T20:02:21.700Z,33.02
2022-08-05T20:04:49.109Z,32.88
2022-08-05T20:07:46.205Z,32.87
2022-08-05T20:10:13.404Z,32.74
2022-08-05T20:12:40.020Z,32.67
2022-08-05T20:15:13.494Z,32.59
2022-08-05T20:17:39.547Z,32.60
2022-08-05T20:20:09.299Z,32.47
2022-08-05T20:22:36.765Z,32.37
2022-08-05T20:25:07.599Z,32.48
2022-08-05T20:27:35.176Z,32.45
2022-08-05T20:30:07.931Z,32.31
2022-08-05T20:32:34.222Z,32.23
2022-08-05T20:35:02.154Z,32.13
2022-08-05T20:38:05.857Z,32.03
2022-08-05T20:40:15.333Z,32.04
2022-08-05T20:42:43.968Z,31.86
2022-08-05T20:45:09.917Z,31.56
2022-08-05T20:47:40.225Z,31.64
2022-08-05T20:50:07.450Z,31.78
2022-08-05T20:52:33.590Z,31.58
2022-08-05T20:55:56.817Z,31.67
2022-08-05T20:57:46.090Z,31.79
2022-08-05T21:00:41.411Z,31.58
2022-08-05T21:03:01.498Z,31.35
2022-08-05T21:05:28.521Z,31.46
2022-08-05T21:08:13.545Z,31.06
2022-08-05T21:10:39.498Z,31.15
2022-08-05T21:13:17.274Z,31.14
2022-08-05T21:15:53.428Z,31.07
2022-08-05T21:18:19.555Z,31.05
2022-08-05T21:20:49.418Z,30.98
2022-08-05T21:23:15.386Z,31.04
2022-08-05T21:25:41.446Z,31.16
2022-08-05T21:28:07.759Z,31.21
2022-08-05T21:30:33.708Z,31.12
2022-08-05T21:32:59.685Z,31.10
2022-08-05T21:35:29.922Z,30.96
2022-08-05T21:38:09.835Z,31.04
2022-08-05T21:40:35.817Z,31.11
2022-08-05T21:43:02.344Z,31.01
2022-08-05T21:45:56.174Z,30.93
2022-08-05T21:48:17.647Z,30.81
2022-08-05T21:50:53.011Z,30.94
2022-08-05T21:53:21.370Z,31.02
2022-08-05T21:56:06.116Z,30.93
2022-08-05T21:58:42.411Z,30.72
2022-08-05T22:01:23.953Z,30.56
2022-08-05T22:03:52.953Z,30.38
2022-08-05T22:06:22.187Z,30.47
2022-08-05T22:08:51.912Z,30.37
2022-08-05T22:11:18.472Z,30.14
2022-08-05T22:14:19.561Z,30.11
2022-08-05T22:16:51.950Z,29.98
2022-08-05T22:20:02.576Z,29.97
2022-08-05T22:22:08.723Z,30.19
2022-08-05T22:24:40.394Z,30.06
2022-08-05T22:27:17.985Z,29.91
2022-08-05T22:29:43.943Z,29.95
2022-08-05T22:32:11.915Z,29.78
2022-08-05T22:34:43.567Z,29.86
2022-08-05T22:37:11.682Z,29.87
2022-08-05T22:39:37.704Z,30.07
2022-08-05T22:42:10.963Z,30.05
2022-08-05T22:44:38.833Z,29.94
2022-08-05T22:47:05.166Z,30.08
2022-08-05T22:50:18.014Z,30.13
2022-08-05T22:52:30.652Z,30.00
2022-08-05T22:54:58.839Z,29.79
2022-08-05T22:57:24.774Z,29.86
2022-08-05T22:59:54.292Z,29.79
2022-08-05T23:02:28.795Z,29.75
2022-08-05T23:04:56.012Z,29.51
2022-08-05T23:07:22.498Z,29.52
2022-08-05T23:09:57.016Z,29.67
2022-08-05T23:12:28.562Z,29.76
2022-08-05T23:14:54.767Z,29.74
2022-08-05T23:17:24.504Z,29.65
2022-08-05T23:19:58.843Z,29.50
2022-08-05T23:22:27.518Z,29.62
2022-08-05T23:24:53.716Z,29.42
2022-08-05T23:27:19.737Z,29.40
2022-08-05T23:29:48.588Z,29.23
2022-08-05T23:32:16.647Z,29.20
2022-08-05T23:34:48.579Z,29.21
2022-08-05T23:37:14.524Z,29.25
2022-08-05T23:39:44.449Z,29.16
2022-08-05T23:42:23.496Z,29.09
2022-08-05T23:44:54.875Z,28.94
2022-08-05T23:47:20.833Z,28.91
2022-08-05T23:49:49.294Z,29.18
2022-08-05T23:52:18.228Z,29.26
2022-08-05T23:54:44.891Z,29.42
2022-08-05T23:57:10.858Z,29.36
